sensor_id;sensor_type;location;lat;lon;timestamp;P1;durP1;ratioP1;P2;durP2;ratioP2
72388;SDS011;60566;48.062;9.930;2022-10-16T00:00:41;4.53;;;2.20;;
72388;SDS011;60566;48.062;9.930;2022-10-16T00:03:07;7.10;;;2.38;;
72388;SDS011;60566;48.062;9.930;2022-10-16T00:05:33;5.25;;;2.03;;
72388;SDS011;60566;48.062;9.930;2022-10-16T00:08:03;4.03;;;1.95;;
72388;SDS011;60566;48.062;9.930;2022-10-16T00:10:29;4.60;;;2.03;;
72388;SDS011;60566;48.062;9.930;2022-10-16T00:12:54;6.28;;;2.28;;
72388;SDS011;60566;48.062;9.930;2022-10-16T00:15:21;4.47;;;2.05;;
72388;SDS011;60566;48.062;9.930;2022-10-16T00:17:46;4.13;;;1.92;;
72388;SDS011;60566;48.062;9.930;2022-10-16T00:20:12;6.50;;;2.40;;
72388;SDS011;60566;48.062;9.930;2022-10-16T00:22:37;6.32;;;2.28;;
72388;SDS011;60566;48.062;9.930;2022-10-16T00:25:03;4.15;;;1.95;;
72388;SDS011;60566;48.062;9.930;2022-10-16T00:27:28;5.25;;;2.08;;
72388;SDS011;60566;48.062;9.930;2022-10-16T00:29:54;5.38;;;1.90;;
72388;SDS011;60566;48.062;9.930;2022-10-16T00:32:21;4.60;;;1.77;;
72388;SDS011;60566;48.062;9.930;2022-10-16T00:34:46;4.97;;;1.88;;
72388;SDS011;60566;48.062;9.930;2022-10-16T00:37:12;4.65;;;1.83;;
72388;SDS011;60566;48.062;9.930;2022-10-16T00:39:37;5.72;;;1.63;;
72388;SDS011;60566;48.062;9.930;2022-10-16T00:42:03;4.57;;;2.20;;
72388;SDS011;60566;48.062;9.930;2022-10-16T00:44:45;4.05;;;2.00;;
72388;SDS011;60566;48.062;9.930;2022-10-16T00:47:13;4.57;;;2.05;;
72388;SDS011;60566;48.062;9.930;2022-10-16T00:49:44;6.85;;;2.13;;
72388;SDS011;60566;48.062;9.930;2022-10-16T00:52:09;4.57;;;1.55;;
72388;SDS011;60566;48.062;9.930;2022-10-16T00:54:35;3.58;;;1.90;;
72388;SDS011;60566;48.062;9.930;2022-10-16T00:57:02;6.50;;;1.90;;
72388;SDS011;60566;48.062;9.930;2022-10-16T00:59:29;3.38;;;1.63;;
72388;SDS011;60566;48.062;9.930;2022-10-16T01:04:22;5.57;;;2.00;;
72388;SDS011;60566;48.062;9.930;2022-10-16T01:06:51;4.28;;;2.00;;
72388;SDS011;60566;48.062;9.930;2022-10-16T01:11:50;4.43;;;1.92;;
72388;SDS011;60566;48.062;9.930;2022-10-16T01:14:24;4.95;;;1.73;;
72388;SDS011;60566;48.062;9.930;2022-10-16T01:16:53;4.15;;;2.00;;
72388;SDS011;60566;48.062;9.930;2022-10-16T01:19:25;4.72;;;1.88;;
72388;SDS011;60566;48.062;9.930;2022-10-16T01:21:58;2.90;;;1.63;;
72388;SDS011;60566;48.062;9.930;2022-10-16T01:24:27;5.28;;;1.95;;
72388;SDS011;60566;48.062;9.930;2022-10-16T01:27:08;4.05;;;1.80;;
72388;SDS011;60566;48.062;9.930;2022-10-16T01:29:36;3.47;;;1.70;;
72388;SDS011;60566;48.062;9.930;2022-10-16T01:32:05;6.38;;;1.85;;
72388;SDS011;60566;48.062;9.930;2022-10-16T01:34:37;4.18;;;1.85;;
72388;SDS011;60566;48.062;9.930;2022-10-16T01:37:05;4.00;;;1.70;;
72388;SDS011;60566;48.062;9.930;2022-10-16T01:39:35;3.15;;;1.75;;
72388;SDS011;60566;48.062;9.930;2022-10-16T01:42:03;3.78;;;2.08;;
72388;SDS011;60566;48.062;9.930;2022-10-16T01:44:33;5.22;;;1.45;;
72388;SDS011;60566;48.062;9.930;2022-10-16T01:46:59;4.70;;;2.13;;
72388;SDS011;60566;48.062;9.930;2022-10-16T01:49:25;5.25;;;1.80;;
72388;SDS011;60566;48.062;9.930;2022-10-16T01:51:54;3.53;;;1.80;;
72388;SDS011;60566;48.062;9.930;2022-10-16T01:54:21;3.70;;;1.50;;
72388;SDS011;60566;48.062;9.930;2022-10-16T01:56:48;3.92;;;1.67;;
72388;SDS011;60566;48.062;9.930;2022-10-16T01:59:14;3.45;;;1.58;;
72388;SDS011;60566;48.062;9.930;2022-10-16T02:01:44;3.63;;;1.60;;
72388;SDS011;60566;48.062;9.930;2022-10-16T02:04:11;7.20;;;2.10;;
72388;SDS011;60566;48.062;9.930;2022-10-16T02:06:40;3.10;;;1.27;;
72388;SDS011;60566;48.062;9.930;2022-10-16T02:09:06;4.80;;;1.80;;
72388;SDS011;60566;48.062;9.930;2022-10-16T02:11:31;5.65;;;1.90;;
72388;SDS011;60566;48.062;9.930;2022-10-16T02:13:59;3.95;;;1.70;;
72388;SDS011;60566;48.062;9.930;2022-10-16T02:16:32;3.53;;;1.67;;
72388;SDS011;60566;48.062;9.930;2022-10-16T02:19:00;7.57;;;1.98;;
72388;SDS011;60566;48.062;9.930;2022-10-16T02:21:26;4.25;;;2.10;;
72388;SDS011;60566;48.062;9.930;2022-10-16T02:23:57;6.05;;;2.33;;
72388;SDS011;60566;48.062;9.930;2022-10-16T02:26:29;3.67;;;1.95;;
72388;SDS011;60566;48.062;9.930;2022-10-16T02:28:59;4.45;;;1.73;;
72388;SDS011;60566;48.062;9.930;2022-10-16T02:31:27;3.88;;;1.77;;
72388;SDS011;60566;48.062;9.930;2022-10-16T02:33:53;3.22;;;1.50;;
72388;SDS011;60566;48.062;9.930;2022-10-16T02:36:21;3.75;;;1.75;;
72388;SDS011;60566;48.062;9.930;2022-10-16T02:38:47;3.97;;;1.73;;
72388;SDS011;60566;48.062;9.930;2022-10-16T02:41:12;4.30;;;1.85;;
72388;SDS011;60566;48.062;9.930;2022-10-16T02:43:39;3.50;;;1.80;;
72388;SDS011;60566;48.062;9.930;2022-10-16T02:46:04;2.92;;;1.52;;
72388;SDS011;60566;48.062;9.930;2022-10-16T02:48:29;3.15;;;1.55;;
72388;SDS011;60566;48.062;9.930;2022-10-16T02:50:55;3.67;;;1.60;;
72388;SDS011;60566;48.062;9.930;2022-10-16T02:53:22;5.30;;;1.60;;
72388;SDS011;60566;48.062;9.930;2022-10-16T02:55:47;5.40;;;1.65;;
72388;SDS011;60566;48.062;9.930;2022-10-16T02:58:12;4.07;;;1.75;;
72388;SDS011;60566;48.062;9.930;2022-10-16T03:00:38;3.72;;;1.70;;
72388;SDS011;60566;48.062;9.930;2022-10-16T03:03:03;5.22;;;1.58;;
72388;SDS011;60566;48.062;9.930;2022-10-16T03:05:28;2.92;;;1.27;;
72388;SDS011;60566;48.062;9.930;2022-10-16T03:07:54;2.95;;;1.38;;
72388;SDS011;60566;48.062;9.930;2022-10-16T03:10:21;3.50;;;1.70;;
72388;SDS011;60566;48.062;9.930;2022-10-16T03:12:46;3.60;;;1.73;;
72388;SDS011;60566;48.062;9.930;2022-10-16T03:15:11;3.63;;;1.52;;
72388;SDS011;60566;48.062;9.930;2022-10-16T03:17:37;5.00;;;1.70;;
72388;SDS011;60566;48.062;9.930;2022-10-16T03:20:02;5.15;;;1.42;;
72388;SDS011;60566;48.062;9.930;2022-10-16T03:22:28;3.13;;;1.40;;
72388;SDS011;60566;48.062;9.930;2022-10-16T03:24:54;9.45;;;2.15;;
72388;SDS011;60566;48.062;9.930;2022-10-16T03:27:20;5.82;;;1.80;;
72388;SDS011;60566;48.062;9.930;2022-10-16T03:29:46;5.13;;;1.45;;
72388;SDS011;60566;48.062;9.930;2022-10-16T03:32:12;3.47;;;1.58;;
72388;SDS011;60566;48.062;9.930;2022-10-16T03:34:37;3.40;;;1.25;;
72388;SDS011;60566;48.062;9.930;2022-10-16T03:37:03;2.90;;;1.30;;
72388;SDS011;60566;48.062;9.930;2022-10-16T03:39:28;3.08;;;1.40;;
72388;SDS011;60566;48.062;9.930;2022-10-16T03:41:53;3.25;;;1.52;;
72388;SDS011;60566;48.062;9.930;2022-10-16T03:44:20;3.10;;;1.40;;
72388;SDS011;60566;48.062;9.930;2022-10-16T03:46:46;7.13;;;1.80;;
72388;SDS011;60566;48.062;9.930;2022-10-16T03:49:11;3.58;;;1.77;;
72388;SDS011;60566;48.062;9.930;2022-10-16T03:51:36;2.90;;;1.33;;
72388;SDS011;60566;48.062;9.930;2022-10-16T03:54:02;4.13;;;1.42;;
72388;SDS011;60566;48.062;9.930;2022-10-16T03:56:27;3.35;;;1.27;;
72388;SDS011;60566;48.062;9.930;2022-10-16T03:58:53;3.13;;;1.27;;
72388;SDS011;60566;48.062;9.930;2022-10-16T04:01:19;3.10;;;1.40;;
72388;SDS011;60566;48.062;9.930;2022-10-16T04:03:45;3.55;;;1.50;;
72388;SDS011;60566;48.062;9.930;2022-10-16T04:06:10;4.38;;;1.70;;
72388;SDS011;60566;48.062;9.930;2022-10-16T04:08:36;2.80;;;1.23;;
72388;SDS011;60566;48.062;9.930;2022-10-16T04:11:01;3.92;;;1.50;;
72388;SDS011;60566;48.062;9.930;2022-10-16T04:13:26;2.67;;;1.52;;
72388;SDS011;60566;48.062;9.930;2022-10-16T04:15:52;3.22;;;1.40;;
72388;SDS011;60566;48.062;9.930;2022-10-16T04:18:19;4.32;;;1.40;;
72388;SDS011;60566;48.062;9.930;2022-10-16T04:20:44;3.00;;;1.15;;
72388;SDS011;60566;48.062;9.930;2022-10-16T04:23:09;3.50;;;1.23;;
72388;SDS011;60566;48.062;9.930;2022-10-16T04:25:35;4.38;;;1.58;;
72388;SDS011;60566;48.062;9.930;2022-10-16T04:28:00;5.70;;;1.42;;
72388;SDS011;60566;48.062;9.930;2022-10-16T04:30:25;2.88;;;1.30;;
72388;SDS011;60566;48.062;9.930;2022-10-16T04:32:51;5.05;;;1.40;;
72388;SDS011;60566;48.062;9.930;2022-10-16T04:35:19;2.22;;;1.10;;
72388;SDS011;60566;48.062;9.930;2022-10-16T04:37:44;5.93;;;1.63;;
72388;SDS011;60566;48.062;9.930;2022-10-16T04:40:10;2.53;;;1.30;;
72388;SDS011;60566;48.062;9.930;2022-10-16T04:42:35;4.50;;;1.52;;
72388;SDS011;60566;48.062;9.930;2022-10-16T04:45:01;3.83;;;1.27;;
72388;SDS011;60566;48.062;9.930;2022-10-16T04:47:26;4.25;;;1.45;;
72388;SDS011;60566;48.062;9.930;2022-10-16T04:49:52;5.50;;;1.55;;
72388;SDS011;60566;48.062;9.930;2022-10-16T04:52:18;4.80;;;1.30;;
72388;SDS011;60566;48.062;9.930;2022-10-16T04:54:44;3.40;;;1.30;;
72388;SDS011;60566;48.062;9.930;2022-10-16T04:57:09;4.65;;;1.33;;
72388;SDS011;60566;48.062;9.930;2022-10-16T04:59:34;3.35;;;1.60;;
72388;SDS011;60566;48.062;9.930;2022-10-16T05:02:00;4.13;;;1.40;;
72388;SDS011;60566;48.062;9.930;2022-10-16T05:04:25;4.38;;;1.25;;
72388;SDS011;60566;48.062;9.930;2022-10-16T05:06:51;4.68;;;1.45;;
72388;SDS011;60566;48.062;9.930;2022-10-16T05:09:17;4.72;;;1.45;;
72388;SDS011;60566;48.062;9.930;2022-10-16T05:11:43;3.42;;;1.38;;
72388;SDS011;60566;48.062;9.930;2022-10-16T05:14:08;3.10;;;1.50;;
72388;SDS011;60566;48.062;9.930;2022-10-16T05:16:34;3.47;;;1.42;;
72388;SDS011;60566;48.062;9.930;2022-10-16T05:18:59;3.38;;;1.45;;
72388;SDS011;60566;48.062;9.930;2022-10-16T05:21:25;7.88;;;1.83;;
72388;SDS011;60566;48.062;9.930;2022-10-16T05:23:50;2.67;;;1.33;;
72388;SDS011;60566;48.062;9.930;2022-10-16T05:26:17;4.30;;;1.55;;
72388;SDS011;60566;48.062;9.930;2022-10-16T05:28:42;6.60;;;1.60;;
72388;SDS011;60566;48.062;9.930;2022-10-16T05:31:08;3.80;;;1.70;;
72388;SDS011;60566;48.062;9.930;2022-10-16T05:33:34;3.90;;;1.45;;
72388;SDS011;60566;48.062;9.930;2022-10-16T05:36:00;3.53;;;1.58;;
72388;SDS011;60566;48.062;9.930;2022-10-16T05:38:26;3.83;;;1.38;;
72388;SDS011;60566;48.062;9.930;2022-10-16T05:40:52;3.38;;;1.48;;
72388;SDS011;60566;48.062;9.930;2022-10-16T05:43:18;4.18;;;1.83;;
72388;SDS011;60566;48.062;9.930;2022-10-16T05:45:44;9.13;;;1.75;;
72388;SDS011;60566;48.062;9.930;2022-10-16T05:48:09;6.07;;;1.95;;
72388;SDS011;60566;48.062;9.930;2022-10-16T05:50:35;3.83;;;1.90;;
72388;SDS011;60566;48.062;9.930;2022-10-16T05:53:00;5.13;;;1.55;;
72388;SDS011;60566;48.062;9.930;2022-10-16T05:55:26;2.85;;;1.50;;
72388;SDS011;60566;48.062;9.930;2022-10-16T05:57:53;3.60;;;1.40;;
72388;SDS011;60566;48.062;9.930;2022-10-16T06:00:20;3.17;;;1.50;;
72388;SDS011;60566;48.062;9.930;2022-10-16T06:02:46;4.15;;;1.45;;
72388;SDS011;60566;48.062;9.930;2022-10-16T06:05:11;3.70;;;1.83;;
72388;SDS011;60566;48.062;9.930;2022-10-16T06:07:36;5.25;;;1.98;;
72388;SDS011;60566;48.062;9.930;2022-10-16T06:10:02;10.68;;;2.58;;
72388;SDS011;60566;48.062;9.930;2022-10-16T06:12:28;5.50;;;2.30;;
72388;SDS011;60566;48.062;9.930;2022-10-16T06:14:54;5.95;;;1.98;;
72388;SDS011;60566;48.062;9.930;2022-10-16T06:17:20;7.35;;;3.03;;
72388;SDS011;60566;48.062;9.930;2022-10-16T06:19:46;9.95;;;3.22;;
72388;SDS011;60566;48.062;9.930;2022-10-16T06:22:11;13.52;;;4.07;;
72388;SDS011;60566;48.062;9.930;2022-10-16T06:24:37;8.38;;;3.03;;
72388;SDS011;60566;48.062;9.930;2022-10-16T06:27:02;10.77;;;3.47;;
72388;SDS011;60566;48.062;9.930;2022-10-16T06:29:28;8.13;;;3.08;;
72388;SDS011;60566;48.062;9.930;2022-10-16T06:31:53;15.23;;;3.97;;
72388;SDS011;60566;48.062;9.930;2022-10-16T06:34:20;12.07;;;3.40;;
72388;SDS011;60566;48.062;9.930;2022-10-16T06:36:45;7.95;;;2.75;;
72388;SDS011;60566;48.062;9.930;2022-10-16T06:39:11;5.70;;;2.28;;
72388;SDS011;60566;48.062;9.930;2022-10-16T06:41:36;4.32;;;2.53;;
72388;SDS011;60566;48.062;9.930;2022-10-16T06:44:04;5.43;;;1.92;;
72388;SDS011;60566;48.062;9.930;2022-10-16T06:46:30;3.58;;;1.88;;
72388;SDS011;60566;48.062;9.930;2022-10-16T06:48:56;4.00;;;1.55;;
72388;SDS011;60566;48.062;9.930;2022-10-16T06:51:23;6.93;;;1.70;;
72388;SDS011;60566;48.062;9.930;2022-10-16T06:53:50;5.13;;;1.40;;
72388;SDS011;60566;48.062;9.930;2022-10-16T06:56:16;3.60;;;1.48;;
72388;SDS011;60566;48.062;9.930;2022-10-16T06:58:44;3.55;;;1.33;;
72388;SDS011;60566;48.062;9.930;2022-10-16T07:01:13;3.30;;;1.40;;
72388;SDS011;60566;48.062;9.930;2022-10-16T07:03:40;3.60;;;1.55;;
72388;SDS011;60566;48.062;9.930;2022-10-16T07:06:07;2.60;;;1.40;;
72388;SDS011;60566;48.062;9.930;2022-10-16T07:08:35;4.75;;;2.38;;
72388;SDS011;60566;48.062;9.930;2022-10-16T07:11:06;4.80;;;2.22;;
72388;SDS011;60566;48.062;9.930;2022-10-16T07:13:32;5.85;;;2.30;;
72388;SDS011;60566;48.062;9.930;2022-10-16T07:15:58;8.77;;;3.13;;
72388;SDS011;60566;48.062;9.930;2022-10-16T07:18:29;5.97;;;3.00;;
72388;SDS011;60566;48.062;9.930;2022-10-16T07:21:02;7.70;;;3.28;;
72388;SDS011;60566;48.062;9.930;2022-10-16T07:23:28;6.93;;;3.75;;
72388;SDS011;60566;48.062;9.930;2022-10-16T07:25:55;6.65;;;3.17;;
72388;SDS011;60566;48.062;9.930;2022-10-16T07:28:21;11.70;;;4.40;;
72388;SDS011;60566;48.062;9.930;2022-10-16T07:30:46;8.82;;;2.63;;
72388;SDS011;60566;48.062;9.930;2022-10-16T07:33:13;5.13;;;2.28;;
72388;SDS011;60566;48.062;9.930;2022-10-16T07:35:47;6.75;;;2.20;;
72388;SDS011;60566;48.062;9.930;2022-10-16T07:38:12;4.85;;;1.60;;
72388;SDS011;60566;48.062;9.930;2022-10-16T07:40:38;2.35;;;1.25;;
72388;SDS011;60566;48.062;9.930;2022-10-16T07:43:05;2.83;;;1.30;;
72388;SDS011;60566;48.062;9.930;2022-10-16T07:45:30;3.42;;;1.60;;
72388;SDS011;60566;48.062;9.930;2022-10-16T07:47:55;3.22;;;1.25;;
72388;SDS011;60566;48.062;9.930;2022-10-16T07:50:21;3.00;;;1.33;;
72388;SDS011;60566;48.062;9.930;2022-10-16T07:52:46;3.75;;;1.50;;
72388;SDS011;60566;48.062;9.930;2022-10-16T07:55:12;3.15;;;1.35;;
72388;SDS011;60566;48.062;9.930;2022-10-16T07:57:37;3.05;;;1.38;;
72388;SDS011;60566;48.062;9.930;2022-10-16T08:00:05;2.72;;;1.35;;
72388;SDS011;60566;48.062;9.930;2022-10-16T08:02:31;3.15;;;1.38;;
72388;SDS011;60566;48.062;9.930;2022-10-16T08:04:56;3.92;;;1.30;;
72388;SDS011;60566;48.062;9.930;2022-10-16T08:07:21;4.93;;;1.88;;
72388;SDS011;60566;48.062;9.930;2022-10-16T08:09:48;2.92;;;1.10;;
72388;SDS011;60566;48.062;9.930;2022-10-16T08:12:14;8.60;;;1.40;;
72388;SDS011;60566;48.062;9.930;2022-10-16T08:14:39;3.05;;;1.23;;
72388;SDS011;60566;48.062;9.930;2022-10-16T08:17:06;2.55;;;1.15;;
72388;SDS011;60566;48.062;9.930;2022-10-16T08:19:31;3.78;;;1.40;;
72388;SDS011;60566;48.062;9.930;2022-10-16T08:21:57;2.90;;;1.17;;
72388;SDS011;60566;48.062;9.930;2022-10-16T08:24:22;2.95;;;1.40;;
72388;SDS011;60566;48.062;9.930;2022-10-16T08:26:47;3.65;;;1.55;;
72388;SDS011;60566;48.062;9.930;2022-10-16T08:29:13;2.60;;;1.33;;
72388;SDS011;60566;48.062;9.930;2022-10-16T08:31:39;4.65;;;1.42;;
72388;SDS011;60566;48.062;9.930;2022-10-16T08:34:05;7.20;;;2.67;;
72388;SDS011;60566;48.062;9.930;2022-10-16T08:36:31;3.75;;;1.20;;
72388;SDS011;60566;48.062;9.930;2022-10-16T08:38:56;3.85;;;1.13;;
72388;SDS011;60566;48.062;9.930;2022-10-16T08:41:35;3.03;;;1.38;;
72388;SDS011;60566;48.062;9.930;2022-10-16T08:44:23;4.75;;;1.20;;
72388;SDS011;60566;48.062;9.930;2022-10-16T08:46:54;4.10;;;1.42;;
72388;SDS011;60566;48.062;9.930;2022-10-16T08:49:24;3.22;;;1.52;;
72388;SDS011;60566;48.062;9.930;2022-10-16T08:51:50;3.08;;;1.85;;
72388;SDS011;60566;48.062;9.930;2022-10-16T08:54:21;2.50;;;1.23;;
72388;SDS011;60566;48.062;9.930;2022-10-16T08:56:51;9.88;;;1.83;;
72388;SDS011;60566;48.062;9.930;2022-10-16T09:01:45;4.40;;;1.77;;
72388;SDS011;60566;48.062;9.930;2022-10-16T09:04:25;3.55;;;1.30;;
72388;SDS011;60566;48.062;9.930;2022-10-16T09:07:09;3.88;;;1.65;;
72388;SDS011;60566;48.062;9.930;2022-10-16T09:09:41;5.97;;;1.60;;
72388;SDS011;60566;48.062;9.930;2022-10-16T09:12:16;3.67;;;1.70;;
72388;SDS011;60566;48.062;9.930;2022-10-16T09:14:47;2.85;;;1.60;;
72388;SDS011;60566;48.062;9.930;2022-10-16T09:17:21;3.78;;;1.40;;
72388;SDS011;60566;48.062;9.930;2022-10-16T09:19:53;4.20;;;1.45;;
72388;SDS011;60566;48.062;9.930;2022-10-16T09:22:20;3.30;;;1.38;;
72388;SDS011;60566;48.062;9.930;2022-10-16T09:24:46;6.22;;;1.83;;
72388;SDS011;60566;48.062;9.930;2022-10-16T09:27:12;3.72;;;1.70;;
72388;SDS011;60566;48.062;9.930;2022-10-16T09:29:39;4.18;;;1.58;;
72388;SDS011;60566;48.062;9.930;2022-10-16T09:32:08;3.22;;;1.42;;
72388;SDS011;60566;48.062;9.930;2022-10-16T09:34:35;3.67;;;1.58;;
72388;SDS011;60566;48.062;9.930;2022-10-16T09:37:04;3.60;;;1.25;;
72388;SDS011;60566;48.062;9.930;2022-10-16T09:39:43;4.00;;;1.10;;
72388;SDS011;60566;48.062;9.930;2022-10-16T09:42:11;3.88;;;1.40;;
72388;SDS011;60566;48.062;9.930;2022-10-16T09:44:38;4.00;;;1.50;;
72388;SDS011;60566;48.062;9.930;2022-10-16T09:47:04;2.80;;;1.20;;
72388;SDS011;60566;48.062;9.930;2022-10-16T09:49:30;2.65;;;1.20;;
72388;SDS011;60566;48.062;9.930;2022-10-16T09:52:05;4.43;;;1.20;;
72388;SDS011;60566;48.062;9.930;2022-10-16T09:54:36;3.10;;;1.25;;
72388;SDS011;60566;48.062;9.930;2022-10-16T09:57:04;2.90;;;1.50;;
72388;SDS011;60566;48.062;9.930;2022-10-16T09:59:31;3.83;;;1.35;;
72388;SDS011;60566;48.062;9.930;2022-10-16T10:01:56;2.85;;;1.30;;
72388;SDS011;60566;48.062;9.930;2022-10-16T10:04:26;6.32;;;1.58;;
72388;SDS011;60566;48.062;9.930;2022-10-16T10:07:03;3.42;;;1.20;;
72388;SDS011;60566;48.062;9.930;2022-10-16T10:09:30;5.72;;;1.50;;
72388;SDS011;60566;48.062;9.930;2022-10-16T10:11:58;3.15;;;1.30;;
72388;SDS011;60566;48.062;9.930;2022-10-16T10:14:25;2.90;;;1.05;;
72388;SDS011;60566;48.062;9.930;2022-10-16T10:17:01;3.38;;;1.33;;
72388;SDS011;60566;48.062;9.930;2022-10-16T10:19:37;6.38;;;1.90;;
72388;SDS011;60566;48.062;9.930;2022-10-16T10:22:11;5.18;;;1.60;;
72388;SDS011;60566;48.062;9.930;2022-10-16T10:24:41;4.03;;;1.60;;
72388;SDS011;60566;48.062;9.930;2022-10-16T10:27:08;6.28;;;1.80;;
72388;SDS011;60566;48.062;9.930;2022-10-16T10:29:42;4.65;;;1.60;;
72388;SDS011;60566;48.062;9.930;2022-10-16T10:32:15;7.15;;;1.60;;
72388;SDS011;60566;48.062;9.930;2022-10-16T10:37:22;5.55;;;1.70;;
72388;SDS011;60566;48.062;9.930;2022-10-16T10:39:55;4.65;;;0.90;;
72388;SDS011;60566;48.062;9.930;2022-10-16T10:42:24;4.78;;;1.10;;
72388;SDS011;60566;48.062;9.930;2022-10-16T10:44:55;3.17;;;1.23;;
72388;SDS011;60566;48.062;9.930;2022-10-16T10:47:30;3.15;;;1.17;;
72388;SDS011;60566;48.062;9.930;2022-10-16T10:50:06;1.98;;;1.17;;
72388;SDS011;60566;48.062;9.930;2022-10-16T10:52:41;4.03;;;1.45;;
72388;SDS011;60566;48.062;9.930;2022-10-16T10:55:16;2.70;;;1.10;;
72388;SDS011;60566;48.062;9.930;2022-10-16T10:57:52;4.22;;;1.33;;
72388;SDS011;60566;48.062;9.930;2022-10-16T11:00:27;2.83;;;1.20;;
72388;SDS011;60566;48.062;9.930;2022-10-16T11:02:54;4.78;;;1.52;;
72388;SDS011;60566;48.062;9.930;2022-10-16T11:05:27;3.90;;;1.20;;
72388;SDS011;60566;48.062;9.930;2022-10-16T11:07:59;3.33;;;1.20;;
72388;SDS011;60566;48.062;9.930;2022-10-16T11:10:28;2.58;;;0.88;;
72388;SDS011;60566;48.062;9.930;2022-10-16T11:12:57;2.03;;;1.00;;
72388;SDS011;60566;48.062;9.930;2022-10-16T11:15:25;5.50;;;1.10;;
72388;SDS011;60566;48.062;9.930;2022-10-16T11:17:55;4.38;;;1.30;;
72388;SDS011;60566;48.062;9.930;2022-10-16T11:20:24;2.72;;;1.20;;
72388;SDS011;60566;48.062;9.930;2022-10-16T11:22:53;3.25;;;1.60;;
72388;SDS011;60566;48.062;9.930;2022-10-16T11:25:20;2.05;;;1.02;;
72388;SDS011;60566;48.062;9.930;2022-10-16T11:27:49;2.55;;;1.10;;
72388;SDS011;60566;48.062;9.930;2022-10-16T11:30:16;4.88;;;1.15;;
72388;SDS011;60566;48.062;9.930;2022-10-16T11:32:49;2.50;;;1.10;;
72388;SDS011;60566;48.062;9.930;2022-10-16T11:35:32;2.90;;;1.10;;
72388;SDS011;60566;48.062;9.930;2022-10-16T11:40:28;3.17;;;1.10;;
72388;SDS011;60566;48.062;9.930;2022-10-16T11:42:56;2.95;;;0.98;;
72388;SDS011;60566;48.062;9.930;2022-10-16T11:45:26;3.13;;;1.10;;
72388;SDS011;60566;48.062;9.930;2022-10-16T11:47:57;2.03;;;0.90;;
72388;SDS011;60566;48.062;9.930;2022-10-16T11:50:27;3.35;;;0.82;;
72388;SDS011;60566;48.062;9.930;2022-10-16T11:52:57;2.25;;;1.02;;
72388;SDS011;60566;48.062;9.930;2022-10-16T11:55:27;3.30;;;1.00;;
72388;SDS011;60566;48.062;9.930;2022-10-16T11:57:59;2.95;;;1.10;;
72388;SDS011;60566;48.062;9.930;2022-10-16T12:00:28;2.88;;;1.17;;
72388;SDS011;60566;48.062;9.930;2022-10-16T12:02:58;2.10;;;0.98;;
72388;SDS011;60566;48.062;9.930;2022-10-16T12:05:28;2.20;;;0.93;;
72388;SDS011;60566;48.062;9.930;2022-10-16T12:08:02;2.53;;;0.88;;
72388;SDS011;60566;48.062;9.930;2022-10-16T12:10:32;4.53;;;1.00;;
72388;SDS011;60566;48.062;9.930;2022-10-16T12:12:58;1.65;;;0.85;;
72388;SDS011;60566;48.062;9.930;2022-10-16T12:15:24;3.17;;;1.10;;
72388;SDS011;60566;48.062;9.930;2022-10-16T12:17:51;2.63;;;0.90;;
72388;SDS011;60566;48.062;9.930;2022-10-16T12:20:21;3.80;;;1.02;;
72388;SDS011;60566;48.062;9.930;2022-10-16T12:22:48;2.65;;;1.20;;
72388;SDS011;60566;48.062;9.930;2022-10-16T12:25:20;1.83;;;1.15;;
72388;SDS011;60566;48.062;9.930;2022-10-16T12:27:52;3.67;;;1.17;;
72388;SDS011;60566;48.062;9.930;2022-10-16T12:30:24;3.95;;;1.30;;
72388;SDS011;60566;48.062;9.930;2022-10-16T12:32:54;3.45;;;1.20;;
72388;SDS011;60566;48.062;9.930;2022-10-16T12:35:21;2.42;;;0.93;;
72388;SDS011;60566;48.062;9.930;2022-10-16T12:37:48;2.28;;;1.17;;
72388;SDS011;60566;48.062;9.930;2022-10-16T12:40:15;3.85;;;1.00;;
72388;SDS011;60566;48.062;9.930;2022-10-16T12:42:48;1.85;;;0.90;;
72388;SDS011;60566;48.062;9.930;2022-10-16T12:45:24;4.15;;;1.10;;
72388;SDS011;60566;48.062;9.930;2022-10-16T12:47:52;2.63;;;1.20;;
72388;SDS011;60566;48.062;9.930;2022-10-16T12:50:25;3.13;;;1.00;;
72388;SDS011;60566;48.062;9.930;2022-10-16T12:52:56;2.20;;;0.90;;
72388;SDS011;60566;48.062;9.930;2022-10-16T12:55:22;2.15;;;0.93;;
72388;SDS011;60566;48.062;9.930;2022-10-16T12:57:53;2.20;;;0.90;;
72388;SDS011;60566;48.062;9.930;2022-10-16T13:00:28;3.60;;;1.40;;
72388;SDS011;60566;48.062;9.930;2022-10-16T13:03:22;2.78;;;1.10;;
72388;SDS011;60566;48.062;9.930;2022-10-16T13:05:59;2.35;;;0.90;;
72388;SDS011;60566;48.062;9.930;2022-10-16T13:08:36;4.93;;;1.10;;
72388;SDS011;60566;48.062;9.930;2022-10-16T13:11:11;2.13;;;1.00;;
72388;SDS011;60566;48.062;9.930;2022-10-16T13:13:45;3.22;;;1.00;;
72388;SDS011;60566;48.062;9.930;2022-10-16T13:16:30;2.10;;;1.05;;
72388;SDS011;60566;48.062;9.930;2022-10-16T13:19:03;2.50;;;1.02;;
72388;SDS011;60566;48.062;9.930;2022-10-16T13:24:11;3.67;;;1.50;;
72388;SDS011;60566;48.062;9.930;2022-10-16T13:26:44;4.05;;;1.10;;
72388;SDS011;60566;48.062;9.930;2022-10-16T13:29:12;4.80;;;1.30;;
72388;SDS011;60566;48.062;9.930;2022-10-16T13:31:40;2.67;;;1.25;;
72388;SDS011;60566;48.062;9.930;2022-10-16T13:34:05;3.80;;;1.20;;
72388;SDS011;60566;48.062;9.930;2022-10-16T13:36:34;2.53;;;1.20;;
72388;SDS011;60566;48.062;9.930;2022-10-16T13:39:06;3.28;;;1.02;;
72388;SDS011;60566;48.062;9.930;2022-10-16T13:41:36;4.38;;;1.17;;
72388;SDS011;60566;48.062;9.930;2022-10-16T13:44:01;2.80;;;1.02;;
72388;SDS011;60566;48.062;9.930;2022-10-16T13:46:27;3.47;;;1.40;;
72388;SDS011;60566;48.062;9.930;2022-10-16T13:48:57;3.03;;;1.02;;
72388;SDS011;60566;48.062;9.930;2022-10-16T13:51:23;2.58;;;1.08;;
72388;SDS011;60566;48.062;9.930;2022-10-16T13:53:49;3.03;;;1.00;;
72388;SDS011;60566;48.062;9.930;2022-10-16T13:56:16;2.35;;;1.05;;
72388;SDS011;60566;48.062;9.930;2022-10-16T13:58:43;4.78;;;1.20;;
72388;SDS011;60566;48.062;9.930;2022-10-16T14:01:15;1.95;;;0.90;;
72388;SDS011;60566;48.062;9.930;2022-10-16T14:03:41;2.42;;;1.10;;
72388;SDS011;60566;48.062;9.930;2022-10-16T14:06:16;2.33;;;1.00;;
72388;SDS011;60566;48.062;9.930;2022-10-16T14:08:48;2.58;;;1.27;;
72388;SDS011;60566;48.062;9.930;2022-10-16T14:11:20;2.22;;;1.10;;
72388;SDS011;60566;48.062;9.930;2022-10-16T14:13:50;2.20;;;0.90;;
72388;SDS011;60566;48.062;9.930;2022-10-16T14:16:16;2.05;;;1.00;;
72388;SDS011;60566;48.062;9.930;2022-10-16T14:18:44;2.42;;;1.20;;
72388;SDS011;60566;48.062;9.930;2022-10-16T14:21:11;2.28;;;1.00;;
72388;SDS011;60566;48.062;9.930;2022-10-16T14:23:40;2.00;;;1.00;;
72388;SDS011;60566;48.062;9.930;2022-10-16T14:26:11;3.45;;;1.10;;
72388;SDS011;60566;48.062;9.930;2022-10-16T14:28:37;2.88;;;1.05;;
72388;SDS011;60566;48.062;9.930;2022-10-16T14:31:17;1.95;;;0.90;;
72388;SDS011;60566;48.062;9.930;2022-10-16T14:33:49;3.15;;;1.10;;
72388;SDS011;60566;48.062;9.930;2022-10-16T14:36:15;3.42;;;0.98;;
72388;SDS011;60566;48.062;9.930;2022-10-16T14:38:43;4.30;;;1.30;;
72388;SDS011;60566;48.062;9.930;2022-10-16T14:41:13;2.60;;;1.30;;
72388;SDS011;60566;48.062;9.930;2022-10-16T14:43:40;3.42;;;1.00;;
72388;SDS011;60566;48.062;9.930;2022-10-16T14:46:08;3.60;;;1.15;;
72388;SDS011;60566;48.062;9.930;2022-10-16T14:48:39;3.40;;;1.15;;
72388;SDS011;60566;48.062;9.930;2022-10-16T14:51:07;1.92;;;0.95;;
72388;SDS011;60566;48.062;9.930;2022-10-16T14:53:34;2.80;;;1.02;;
72388;SDS011;60566;48.062;9.930;2022-10-16T14:56:06;4.00;;;1.08;;
72388;SDS011;60566;48.062;9.930;2022-10-16T14:58:32;2.40;;;1.20;;
72388;SDS011;60566;48.062;9.930;2022-10-16T15:00:58;2.53;;;1.10;;
72388;SDS011;60566;48.062;9.930;2022-10-16T15:03:23;3.17;;;1.10;;
72388;SDS011;60566;48.062;9.930;2022-10-16T15:05:49;4.60;;;1.10;;
72388;SDS011;60566;48.062;9.930;2022-10-16T15:08:14;2.55;;;1.23;;